Time;durP1;ratioP1;P1;durP2;ratioP2;P2;SDS_P1;SDS_P2;PMS_P1;PMS_P2;Temp;Humidity;BMP_temperature;BMP_pressure;BME280_temperature;BME280_humidity;BME280_pressure;Samples;Min_cycle;Max_cycle;Signal;HPM_P1;HPM_P2
2022/07/05 00:01:59;;;;;;;4.13;1.83;;;23.60;35.70;;;;;;5035104;28;20247;-49
2022/07/05 00:04:25;;;;;;;3.90;2.17;;;23.60;35.60;;;;;;5034906;28;20174;-49
2022/07/05 00:09:35;;;;;;;2.37;1.87;;;23.50;36.10;;;;;;5034660;28;20200;-49
2022/07/05 00:12:00;;;;;;;2.93;2.17;;;23.50;36.10;;;;;;5034885;28;20511;-49
2022/07/05 00:14:26;;;;;;;2.53;2.30;;;23.50;36.20;;;;;;5035142;28;20412;-48
2022/07/05 00:16:52;;;;;;;6.77;2.30;;;23.50;36.40;;;;;;5034192;28;20215;-48
2022/07/05 00:19:18;;;;;;;3.10;2.30;;;23.40;36.10;;;;;;5034219;28;20409;-48
2022/07/05 00:21:44;;;;;;;3.03;2.20;;;23.40;36.30;;;;;;5035687;28;20592;-50
2022/07/05 00:24:10;;;;;;;8.00;2.00;;;23.40;36.50;;;;;;5034982;28;20408;-47
2022/07/05 00:26:35;;;;;;;3.03;2.40;;;23.30;36.60;;;;;;5034413;28;20421;-51
2022/07/05 00:29:01;;;;;;;3.23;2.37;;;23.30;36.70;;;;;;5034619;28;20174;-48
2022/07/05 00:31:27;;;;;;;2.73;1.87;;;23.20;36.60;;;;;;5034603;28;20209;-50
2022/07/05 00:33:53;;;;;;;3.53;1.90;;;23.20;36.60;;;;;;5034573;28;20181;-49
2022/07/05 00:36:18;;;;;;;3.33;2.23;;;23.20;36.60;;;;;;5033525;28;20182;-49
2022/07/05 00:38:44;;;;;;;2.40;1.70;;;23.20;36.60;;;;;;5034963;28;20228;-48
2022/07/05 00:41:10;;;;;;;2.20;1.70;;;23.20;36.40;;;;;;5033926;28;20248;-49
2022/07/05 00:43:36;;;;;;;2.40;2.10;;;23.20;36.70;;;;;;5034483;28;20177;-48
2022/07/05 00:46:01;;;;;;;4.13;1.93;;;23.20;36.80;;;;;;5034900;28;20243;-50
2022/07/05 00:48:27;;;;;;;3.60;2.10;;;23.20;36.80;;;;;;5034168;28;20174;-49
2022/07/05 00:50:53;;;;;;;4.20;2.00;;;23.10;36.90;;;;;;5034226;28;20205;-48
2022/07/05 00:53:19;;;;;;;5.67;2.70;;;23.10;37.00;;;;;;5034501;28;20273;-48
2022/07/05 00:55:45;;;;;;;3.57;2.80;;;23.10;37.00;;;;;;5034059;28;20224;-49
2022/07/05 00:58:11;;;;;;;3.73;2.10;;;23.10;37.00;;;;;;5034442;28;20409;-50
2022/07/05 01:00:37;;;;;;;3.30;2.00;;;23.10;36.90;;;;;;5034135;28;20471;-50
2022/07/05 01:03:04;;;;;;;3.03;2.40;;;23.10;37.00;;;;;;5034134;28;20413;-48
2022/07/05 01:05:31;;;;;;;2.90;2.20;;;23.00;37.00;;;;;;5034021;28;20437;-49
2022/07/05 01:08:00;;;;;;;2.87;2.30;;;23.00;37.00;;;;;;5035350;28;20412;-48
2022/07/05 01:10:28;;;;;;;3.90;2.23;;;23.00;38.00;;;;;;5033780;28;20555;-49
2022/07/05 01:12:54;;;;;;;3.00;2.50;;;23.00;37.40;;;;;;5034701;28;20412;-49
2022/07/05 01:15:25;;;;;;;2.40;2.13;;;23.00;37.50;;;;;;5034264;28;20405;-49
2022/07/05 01:17:51;;;;;;;2.47;2.10;;;22.90;37.60;;;;;;5034012;28;20405;-49
2022/07/05 01:20:17;;;;;;;4.57;3.60;;;22.90;37.70;;;;;;5033389;28;20443;-50
2022/07/05 01:22:56;;;;;;;5.80;2.93;;;22.80;37.60;;;;;;5034926;28;20423;-48
2022/07/05 01:25:24;;;;;;;4.03;3.40;;;22.80;37.70;;;;;;5033815;28;20688;-48
2022/07/05 01:27:51;;;;;;;3.20;2.30;;;22.80;37.70;;;;;;5034094;28;20412;-48
2022/07/05 01:30:18;;;;;;;2.80;2.17;;;22.80;37.80;;;;;;5033733;28;20547;-48
2022/07/05 01:32:44;;;;;;;5.07;2.77;;;22.70;37.80;;;;;;5034299;28;20415;-48
2022/07/05 01:35:10;;;;;;;3.17;2.87;;;22.60;37.70;;;;;;5034237;28;20474;-48
2022/07/05 01:37:37;;;;;;;3.67;2.90;;;22.60;37.70;;;;;;5034076;28;20408;-49
2022/07/05 01:40:04;;;;;;;3.83;3.23;;;22.60;37.80;;;;;;5034426;28;20494;-48
2022/07/05 01:42:30;;;;;;;3.43;2.50;;;22.60;37.80;;;;;;5033951;28;20507;-50
2022/07/05 01:44:56;;;;;;;3.20;2.90;;;22.60;37.90;;;;;;5034121;28;20451;-49
2022/07/05 01:47:23;;;;;;;2.87;2.13;;;22.50;38.00;;;;;;5032959;28;20262;-47
2022/07/05 01:49:53;;;;;;;3.13;2.83;;;22.40;38.10;;;;;;5033045;28;20464;-48
2022/07/05 01:52:21;;;;;;;3.80;3.37;;;22.40;38.20;;;;;;5033334;28;20908;-49
2022/07/05 01:54:47;;;;;;;3.23;2.37;;;22.40;38.80;;;;;;5033707;28;20405;-49
2022/07/05 01:57:14;;;;;;;3.73;2.47;;;22.30;38.40;;;;;;5033051;28;20447;-48
2022/07/05 01:59:40;;;;;;;4.13;2.50;;;22.30;38.40;;;;;;5033024;28;20457;-49
2022/07/05 02:02:07;;;;;;;2.60;2.30;;;22.30;38.60;;;;;;5034084;28;20440;-49
2022/07/05 02:04:34;;;;;;;4.60;3.00;;;22.20;38.50;;;;;;5033449;28;20436;-49
2022/07/05 02:09:28;;;;;;;3.20;2.70;;;22.10;38.70;;;;;;5066176;28;20482;-47
2022/07/05 02:11:54;;;;;;;3.53;2.70;;;22.10;38.70;;;;;;5051938;28;20403;-48
2022/07/05 02:14:19;;;;;;;3.47;3.13;;;22.10;38.70;;;;;;5052208;28;20170;-48
2022/07/05 02:16:45;;;;;;;3.67;2.90;;;22.00;38.80;;;;;;5051950;28;20529;-48
2022/07/05 02:19:12;;;;;;;5.97;3.80;;;22.00;38.70;;;;;;5051875;28;20200;-49
2022/07/05 02:21:38;;;;;;;3.53;3.23;;;22.00;38.80;;;;;;5051753;28;20404;-48
2022/07/05 02:24:04;;;;;;;5.00;3.00;;;21.90;38.90;;;;;;5051832;28;20893;-48
2022/07/05 02:26:30;;;;;;;3.90;3.47;;;21.90;38.80;;;;;;5051580;28;20453;-44
2022/07/05 02:28:55;;;;;;;3.40;3.00;;;21.90;39.00;;;;;;5052030;28;20427;-47
2022/07/05 02:31:21;;;;;;;3.80;3.03;;;21.80;38.90;;;;;;5051694;28;20684;-46
2022/07/05 02:33:47;;;;;;;4.00;3.43;;;21.80;39.00;;;;;;5051714;28;20404;-47
2022/07/05 02:36:13;;;;;;;3.53;2.70;;;21.70;39.00;;;;;;5051496;28;20180;-46
2022/07/05 02:38:40;;;;;;;4.88;3.88;;;21.70;39.00;;;;;;5051852;28;20280;-47
2022/07/05 02:41:08;;;;;;;3.63;3.33;;;21.70;39.10;;;;;;5051646;28;20220;-45
2022/07/05 02:43:34;;;;;;;3.08;2.78;;;21.70;39.10;;;;;;5051590;28;20632;-47
2022/07/05 02:46:01;;;;;;;3.70;3.07;;;21.60;39.30;;;;;;5050121;28;20260;-46
2022/07/05 02:48:27;;;;;;;4.90;2.90;;;21.60;39.30;;;;;;5051569;28;20775;-46
2022/07/05 02:50:53;;;;;;;5.25;3.70;;;21.60;39.40;;;;;;5051382;28;20776;-45
2022/07/05 02:53:18;;;;;;;8.20;3.07;;;21.50;39.40;;;;;;5051548;28;20306;-45
2022/07/05 02:55:44;;;;;;;3.57;3.00;;;21.50;39.40;;;;;;5051223;28;20664;-45
2022/07/05 02:58:10;;;;;;;3.00;2.67;;;21.50;40.10;;;;;;5051466;28;20192;-46
2022/07/05 03:00:36;;;;;;;4.30;3.10;;;21.50;39.50;;;;;;5053679;28;20755;-46
2022/07/05 03:03:02;;;;;;;3.73;2.93;;;21.50;39.50;;;;;;5055546;28;20185;-47
2022/07/05 03:05:28;;;;;;;3.13;2.70;;;21.40;39.50;;;;;;5054985;28;20177;-45
2022/07/05 03:07:54;;;;;;;5.30;2.80;;;21.30;39.50;;;;;;5054811;28;20486;-45
2022/07/05 03:10:19;;;;;;;3.03;2.60;;;21.40;39.70;;;;;;5054971;28;20483;-45
2022/07/05 03:12:45;;;;;;;3.50;3.20;;;21.40;39.50;;;;;;5055307;28;20177;-45
2022/07/05 03:15:11;;;;;;;3.20;2.90;;;21.30;39.90;;;;;;5055190;28;20454;-45
2022/07/05 03:17:37;;;;;;;3.70;3.40;;;21.30;40.00;;;;;;5054697;28;20181;-46
2022/07/05 03:20:03;;;;;;;4.20;3.20;;;21.30;39.90;;;;;;5054816;28;20253;-45
2022/07/05 03:22:29;;;;;;;4.18;3.50;;;21.30;40.10;;;;;;5054878;28;20706;-45
2022/07/05 03:24:55;;;;;;;4.90;3.87;;;21.30;39.90;;;;;;5054910;28;20174;-44
2022/07/05 03:27:20;;;;;;;3.97;3.57;;;21.30;39.90;;;;;;5054578;28;20228;-45
2022/07/05 03:29:46;;;;;;;4.80;3.07;;;21.30;40.00;;;;;;5054654;28;20180;-45
2022/07/05 03:32:12;;;;;;;5.30;3.33;;;21.20;40.00;;;;;;5054706;28;20180;-45
2022/07/05 03:34:38;;;;;;;4.00;3.57;;;21.20;40.10;;;;;;5054504;28;20180;-46
2022/07/05 03:37:04;;;;;;;4.45;3.60;;;21.20;40.20;;;;;;5054618;28;20188;-45
2022/07/05 03:39:30;;;;;;;9.17;4.40;;;21.20;40.20;;;;;;5054702;28;20173;-45
2022/07/05 03:41:55;;;;;;;7.63;3.90;;;21.20;40.30;;;;;;5054477;28;20406;-46
2022/07/05 03:44:21;;;;;;;4.80;3.30;;;21.10;40.40;;;;;;5054411;28;20170;-45
2022/07/05 03:46:47;;;;;;;4.43;3.80;;;21.20;40.10;;;;;;5054196;28;20169;-45
2022/07/05 03:49:13;;;;;;;4.20;3.73;;;21.20;40.20;;;;;;5054224;28;20427;-44
2022/07/05 03:51:39;;;;;;;6.33;4.27;;;21.20;40.20;;;;;;5054471;28;20189;-45
2022/07/05 03:54:04;;;;;;;4.73;4.23;;;21.20;40.40;;;;;;5054449;28;20895;-44
2022/07/05 03:56:30;;;;;;;5.00;4.57;;;21.20;40.60;;;;;;5052745;28;20540;-44
2022/07/05 03:58:56;;;;;;;4.60;4.20;;;21.30;40.50;;;;;;5054020;28;20669;-45
2022/07/05 04:01:22;;;;;;;3.83;3.23;;;21.30;40.40;;;;;;5054172;28;20435;-45
2022/07/05 04:03:48;;;;;;;3.60;3.27;;;21.30;40.40;;;;;;5054301;28;20166;-46
2022/07/05 04:06:14;;;;;;;5.93;4.10;;;21.30;40.30;;;;;;5053877;28;20422;-45
2022/07/05 04:08:40;;;;;;;3.70;3.40;;;21.30;40.20;;;;;;5053822;28;20439;-44
2022/07/05 04:11:07;;;;;;;4.30;3.77;;;21.40;40.30;;;;;;5053858;28;20547;-45
2022/07/05 04:13:33;;;;;;;4.68;3.80;;;21.30;40.40;;;;;;5053980;28;20440;-44
2022/07/05 04:15:59;;;;;;;4.10;3.60;;;21.30;40.40;;;;;;5053718;28;20583;-45
2022/07/05 04:18:25;;;;;;;4.77;3.67;;;21.40;40.50;;;;;;5053541;28;20423;-45
2022/07/05 04:20:51;;;;;;;4.20;3.63;;;21.40;40.50;;;;;;5054057;28;20173;-44
2022/07/05 04:23:16;;;;;;;5.17;4.67;;;21.40;40.50;;;;;;5053719;28;20169;-46
2022/07/05 04:25:42;;;;;;;5.07;3.90;;;21.40;40.70;;;;;;5053387;28;20173;-47
2022/07/05 04:28:08;;;;;;;4.93;4.00;;;21.40;40.80;;;;;;5053503;28;20197;-44
2022/07/05 04:30:33;;;;;;;4.73;4.23;;;21.40;41.10;;;;;;5053719;28;20242;-43
2022/07/05 04:33:00;;;;;;;5.57;3.85;;;21.40;41.30;;;;;;5053395;28;20221;-45
2022/07/05 04:35:26;;;;;;;4.70;4.23;;;21.50;42.20;;;;;;5053573;28;20212;-45
2022/07/05 04:37:52;;;;;;;6.50;3.70;;;21.50;40.90;;;;;;5053187;28;20204;-45
2022/07/05 04:40:18;;;;;;;4.00;3.60;;;21.50;40.70;;;;;;5053677;28;20181;-45
2022/07/05 04:42:44;;;;;;;3.60;3.30;;;21.60;40.80;;;;;;5053558;28;20204;-44
2022/07/05 04:45:10;;;;;;;3.53;2.83;;;21.70;40.80;;;;;;5053165;28;20181;-44
2022/07/05 04:47:36;;;;;;;4.18;3.55;;;21.70;40.80;;;;;;5052874;28;20511;-44
2022/07/05 04:50:03;;;;;;;4.30;2.80;;;21.80;40.80;;;;;;5053320;28;20287;-46
2022/07/05 04:52:29;;;;;;;4.15;3.20;;;21.80;40.40;;;;;;5053056;28;20450;-44
2022/07/05 04:54:55;;;;;;;5.33;3.33;;;21.90;40.40;;;;;;5053380;28;20209;-46
2022/07/05 04:57:21;;;;;;;4.90;2.87;;;22.00;40.20;;;;;;5052958;28;20423;-46
2022/07/05 04:59:46;;;;;;;4.97;3.50;;;22.00;40.10;;;;;;5053067;28;20255;-45
2022/07/05 05:02:13;;;;;;;3.23;2.87;;;22.00;40.20;;;;;;5053025;28;20671;-44
2022/07/05 05:04:38;;;;;;;6.70;3.03;;;22.10;40.20;;;;;;5052898;28;20617;-46
2022/07/05 05:07:04;;;;;;;4.27;3.57;;;22.10;40.10;;;;;;5052502;28;20181;-45
2022/07/05 05:09:30;;;;;;;4.73;3.37;;;22.20;39.80;;;;;;5052729;28;20422;-44
2022/07/05 05:11:56;;;;;;;4.10;3.10;;;22.20;39.70;;;;;;5052722;28;20452;-45
2022/07/05 05:14:22;;;;;;;4.47;4.00;;;22.30;39.80;;;;;;5052672;28;20404;-44
2022/07/05 05:16:48;;;;;;;4.10;3.70;;;22.30;39.90;;;;;;5052485;28;20193;-45
2022/07/05 05:19:14;;;;;;;3.80;3.10;;;22.30;39.70;;;;;;5052756;28;20270;-44
2022/07/05 05:21:39;;;;;;;5.60;3.40;;;22.30;39.10;;;;;;5052519;28;20671;-46
2022/07/05 05:24:06;;;;;;;3.77;3.40;;;22.30;38.90;;;;;;5052219;28;20408;-45
2022/07/05 05:26:32;;;;;;;4.30;3.00;;;22.40;38.60;;;;;;5052156;28;20181;-46
2022/07/05 05:28:57;;;;;;;2.60;2.13;;;22.40;38.30;;;;;;5052603;28;20428;-46
2022/07/05 05:31:23;;;;;;;4.53;2.37;;;22.40;38.30;;;;;;5052308;28;20287;-45
2022/07/05 05:33:49;;;;;;;2.60;2.30;;;22.50;38.20;;;;;;5052435;28;20400;-45
2022/07/05 05:36:15;;;;;;;3.23;2.20;;;22.60;38.10;;;;;;5052121;28;20969;-46
2022/07/05 05:38:41;;;;;;;3.73;3.07;;;22.70;38.00;;;;;;5052211;28;20189;-46
2022/07/05 05:41:06;;;;;;;4.40;2.50;;;22.70;37.70;;;;;;5052210;28;20173;-44
2022/07/05 05:43:33;;;;;;;4.80;2.30;;;22.90;37.70;;;;;;5052155;28;20223;-45
2022/07/05 05:45:58;;;;;;;3.47;2.72;;;22.90;37.20;;;;;;5051946;28;20428;-44
2022/07/05 05:48:24;;;;;;;4.00;2.57;;;23.00;36.60;;;;;;5052181;28;20201;-45
2022/07/05 05:50:51;;;;;;;3.50;2.27;;;23.10;36.70;;;;;;5052166;28;20283;-46
2022/07/05 05:53:17;;;;;;;3.03;2.13;;;23.20;36.20;;;;;;5052459;28;20180;-44
2022/07/05 05:55:43;;;;;;;3.33;2.33;;;23.30;36.10;;;;;;5051971;28;20772;-45
2022/07/05 05:58:17;;;;;;;3.90;2.63;;;23.40;35.80;;;;;;5051894;28;20197;-45
2022/07/05 06:00:44;;;;;;;2.30;2.00;;;23.40;35.40;;;;;;5052270;28;20403;-45
2022/07/05 06:03:10;;;;;;;2.43;2.00;;;23.50;35.90;;;;;;5052022;28;20853;-45
2022/07/05 06:05:36;;;;;;;2.63;2.00;;;23.60;36.00;;;;;;5051878;28;20460;-45
2022/07/05 06:08:02;;;;;;;4.10;2.33;;;23.80;36.10;;;;;;5051767;28;20443;-46
2022/07/05 06:10:30;;;;;;;4.50;2.60;;;23.90;35.10;;;;;;5052036;28;20204;-45
2022/07/05 06:12:58;;;;;;;4.97;1.90;;;23.90;35.10;;;;;;5052115;28;20266;-46
2022/07/05 06:15:23;;;;;;;6.23;2.40;;;24.00;35.30;;;;;;5052195;28;20407;-46
2022/07/05 06:17:50;;;;;;;3.50;2.23;;;24.10;36.00;;;;;;5051917;28;20420;-44
2022/07/05 06:20:20;;;;;;;4.10;2.30;;;24.20;34.50;;;;;;5051951;28;20652;-45
2022/07/05 06:22:46;;;;;;;4.10;2.90;;;24.30;34.50;;;;;;5051778;28;20406;-45
2022/07/05 06:25:12;;;;;;;2.97;2.20;;;24.40;34.40;;;;;;5051819;28;20405;-44
2022/07/05 06:27:46;;;;;;;3.90;2.03;;;24.50;34.80;;;;;;5051380;28;20506;-45
2022/07/05 06:30:14;;;;;;;3.60;2.57;;;24.60;34.90;;;;;;5051660;28;20965;-45
2022/07/05 06:32:42;;;;;;;6.17;2.43;;;24.70;34.40;;;;;;5052045;28;20408;-45
2022/07/05 06:35:08;;;;;;;2.60;2.10;;;24.70;34.00;;;;;;5053641;28;20454;-46
2022/07/05 06:37:52;;;;;;;2.27;1.90;;;24.80;34.80;;;;;;5055542;28;20422;-44
2022/07/05 06:40:22;;;;;;;3.37;2.80;;;25.00;34.50;;;;;;5055817;28;20403;-45
2022/07/05 06:42:50;;;;;;;2.50;1.93;;;25.10;34.50;;;;;;5055531;28;20763;-46
2022/07/05 06:45:16;;;;;;;4.50;2.40;;;25.20;34.50;;;;;;5055510;28;20741;-46
2022/07/05 06:47:41;;;;;;;5.40;2.50;;;25.30;34.00;;;;;;5055311;28;20481;-46
2022/07/05 06:50:08;;;;;;;4.23;1.83;;;25.40;34.40;;;;;;5055338;28;20451;-45
2022/07/05 06:52:34;;;;;;;2.83;1.90;;;25.50;34.20;;;;;;5055437;28;20442;-44
2022/07/05 06:55:00;;;;;;;5.00;2.30;;;25.70;33.90;;;;;;5055331;28;20882;-45
2022/07/05 06:57:26;;;;;;;3.40;2.00;;;25.80;33.60;;;;;;5055002;28;20431;-46
2022/07/05 06:59:53;;;;;;;3.37;2.27;;;25.90;33.50;;;;;;5055151;28;20827;-45
2022/07/05 07:02:19;;;;;;;3.13;2.63;;;26.00;33.40;;;;;;5055442;28;20733;-45
2022/07/05 07:04:45;;;;;;;3.37;1.90;;;26.20;33.20;;;;;;5055354;28;20468;-45
2022/07/05 07:10:00;;;;;;;2.20;1.50;;;26.40;32.70;;;;;;5055451;28;20894;-46
2022/07/05 07:12:27;;;;;;;2.40;1.90;;;26.50;32.50;;;;;;5055375;28;20891;-43
2022/07/05 07:14:53;;;;;;;2.30;1.57;;;26.60;32.10;;;;;;5055307;28;20475;-45
2022/07/05 07:17:19;;;;;;;4.43;1.50;;;26.70;32.00;;;;;;5054973;28;20514;-46
2022/07/05 07:19:44;;;;;;;3.70;1.50;;;26.80;31.80;;;;;;5055163;28;20499;-44
2022/07/05 07:22:10;;;;;;;2.03;1.40;;;26.90;31.80;;;;;;5055526;28;20173;-45
2022/07/05 07:24:36;;;;;;;4.03;1.80;;;27.00;31.30;;;;;;5055042;28;20177;-45
2022/07/05 07:27:02;;;;;;;5.07;2.23;;;27.00;30.70;;;;;;5054774;28;20193;-45
2022/07/05 07:29:29;;;;;;;4.33;1.70;;;27.20;31.50;;;;;;5054727;28;20170;-46
2022/07/05 07:31:55;;;;;;;2.20;1.57;;;27.20;31.50;;;;;;5054832;28;20455;-45
2022/07/05 07:34:22;;;;;;;2.20;1.33;;;27.30;31.20;;;;;;5054500;28;20418;-45
2022/07/05 07:36:48;;;;;;;1.93;1.20;;;27.40;30.80;;;;;;5054339;28;20764;-45
2022/07/05 07:39:14;;;;;;;5.60;1.40;;;27.50;30.00;;;;;;5054435;28;20428;-44
2022/07/05 07:41:40;;;;;;;3.50;1.90;;;27.60;29.60;;;;;;5054936;28;20422;-45
2022/07/05 07:44:05;;;;;;;2.53;1.60;;;27.60;28.80;;;;;;5054433;28;20648;-44
2022/07/05 07:46:31;;;;;;;2.00;1.30;;;27.70;29.40;;;;;;5053780;28;20510;-45
2022/07/05 07:48:58;;;;;;;3.30;1.70;;;27.80;28.90;;;;;;5054255;28;20497;-45
2022/07/05 07:51:24;;;;;;;2.80;1.93;;;27.90;28.50;;;;;;5054227;28;20201;-45
2022/07/05 07:53:50;;;;;;;2.53;1.60;;;27.90;29.20;;;;;;5054274;28;20431;-45
2022/07/05 07:56:16;;;;;;;3.70;1.37;;;28.00;29.10;;;;;;5054367;28;20424;-45
2022/07/05 07:58:41;;;;;;;2.63;1.37;;;28.20;29.30;;;;;;5054216;28;20424;-45
2022/07/05 08:01:10;;;;;;;2.00;1.20;;;28.30;28.90;;;;;;5054100;28;20412;-46
2022/07/05 08:03:40;;;;;;;1.80;0.90;;;28.40;27.40;;;;;;5054034;28;20666;-45
2022/07/05 08:06:13;;;;;;;2.00;1.20;;;28.40;27.10;;;;;;5054090;28;20400;-45
2022/07/05 08:08:41;;;;;;;2.17;1.33;;;28.40;27.80;;;;;;5053792;28;20466;-44
2022/07/05 08:11:09;;;;;;;2.70;1.20;;;28.40;28.10;;;;;;5054120;28;20447;-45
2022/07/05 08:13:35;;;;;;;2.90;1.53;;;28.50;28.30;;;;;;5054094;28;20400;-45
2022/07/05 08:16:01;;;;;;;6.70;1.63;;;28.60;26.90;;;;;;5053619;28;20499;-45
2022/07/05 08:24:00;;;;;;;2.60;1.40;;;28.90;26.50;;;;;;5053949;28;20500;-45
2022/07/05 08:26:27;;;;;;;2.10;1.27;;;28.90;25.10;;;;;;5053379;28;20541;-45
2022/07/05 08:28:53;;;;;;;4.00;1.30;;;28.90;26.30;;;;;;5053578;28;20427;-45
2022/07/05 08:31:20;;;;;;;2.20;1.40;;;28.90;26.40;;;;;;5053841;28;20458;-45
2022/07/05 08:33:47;;;;;;;1.90;0.87;;;29.00;26.50;;;;;;5077657;22;21013;-51
2022/07/05 08:36:13;;;;;;;2.90;1.20;;;29.10;25.90;;;;;;5064425;28;20423;-48
2022/07/05 08:38:38;;;;;;;2.10;1.10;;;29.10;25.30;;;;;;5057707;28;20400;-50
2022/07/05 08:41:07;;;;;;;2.90;1.50;;;29.10;25.50;;;;;;5055205;28;20404;-49
2022/07/05 08:43:40;;;;;;;2.23;1.40;;;29.20;26.00;;;;;;5056977;28;20181;-48
2022/07/05 08:46:09;;;;;;;2.30;1.20;;;29.40;25.30;;;;;;5054514;28;20404;-51
2022/07/05 08:48:42;;;;;;;1.93;1.10;;;29.50;25.50;;;;;;5053361;28;20415;-48
2022/07/05 08:51:11;;;;;;;2.60;1.30;;;29.60;25.50;;;;;;5055007;28;20439;-48
2022/07/05 08:53:38;;;;;;;1.90;0.90;;;29.60;23.70;;;;;;5056264;28;20423;-48
2022/07/05 08:56:06;;;;;;;2.10;1.00;;;29.60;24.50;;;;;;5056567;28;20395;-49
2022/07/05 08:58:32;;;;;;;2.50;1.50;;;29.60;24.60;;;;;;5053946;28;20400;-50
2022/07/05 09:00:59;;;;;;;2.33;0.80;;;29.70;24.00;;;;;;5056045;28;20899;-49
2022/07/05 09:03:36;;;;;;;2.87;1.37;;;29.70;23.90;;;;;;5054996;28;20204;-50
2022/07/05 09:06:03;;;;;;;1.97;1.20;;;29.80;23.10;;;;;;5054632;28;20506;-50
2022/07/05 09:08:34;;;;;;;5.83;1.10;;;29.90;23.10;;;;;;5055311;28;20767;-51
2022/07/05 09:11:03;;;;;;;2.90;1.10;;;30.00;24.00;;;;;;5055452;28;20462;-49
2022/07/05 09:13:37;;;;;;;1.97;1.10;;;30.10;24.90;;;;;;5053246;28;20915;-48
2022/07/05 09:16:03;;;;;;;2.17;1.10;;;30.20;23.40;;;;;;5052845;28;20461;-49
2022/07/05 09:18:42;;;;;;;1.50;0.70;;;30.30;22.40;;;;;;5052634;28;20542;-50
2022/07/05 09:21:23;;;;;;;2.90;1.00;;;30.30;23.20;;;;;;5052815;28;20403;-48
2022/07/05 09:23:58;;;;;;;1.53;0.80;;;30.40;23.60;;;;;;5052623;28;20428;-49
2022/07/05 09:26:44;;;;;;;1.70;0.87;;;30.40;23.80;;;;;;5052626;28;20387;-50
2022/07/05 09:29:13;;;;;;;1.90;0.97;;;30.60;23.20;;;;;;5052705;28;20453;-49
2022/07/05 09:31:41;;;;;;;1.70;1.00;;;30.60;22.80;;;;;;5052479;28;21024;-48
2022/07/05 09:34:12;;;;;;;2.30;1.60;;;30.60;22.70;;;;;;5052385;28;20989;-48
2022/07/05 09:37:06;;;;;;;2.43;1.00;;;30.60;22.80;;;;;;5054108;28;20499;-50
2022/07/05 09:39:32;;;;;;;1.60;0.90;;;30.60;23.20;;;;;;5056096;28;20859;-49
2022/07/05 09:42:23;;;;;;;2.00;0.93;;;30.60;22.50;;;;;;5054007;28;20408;-49
2022/07/05 09:44:52;;;;;;;8.10;1.20;;;30.70;21.60;;;;;;5056986;28;20207;-49
2022/07/05 09:47:21;;;;;;;2.00;1.10;;;30.80;22.50;;;;;;5055612;28;20400;-48
2022/07/05 09:49:52;;;;;;;1.80;0.97;;;30.80;21.80;;;;;;5055393;28;20963;-48
2022/07/05 09:52:33;;;;;;;2.20;1.20;;;30.70;21.70;;;;;;5055140;28;20844;-49
2022/07/05 09:55:10;;;;;;;2.90;0.73;;;30.70;20.80;;;;;;5054898;28;20483;-48
2022/07/05 09:57:39;;;;;;;5.80;0.97;;;30.60;21.80;;;;;;5055303;28;20403;-48
2022/07/05 10:00:10;;;;;;;2.07;1.10;;;30.60;21.70;;;;;;5056316;28;20450;-47
2022/07/05 10:02:43;;;;;;;1.80;0.90;;;30.40;21.80;;;;;;5056003;28;20423;-48
2022/07/05 10:05:14;;;;;;;2.93;1.70;;;30.40;22.00;;;;;;5056112;28;20400;-47
2022/07/05 10:07:50;;;;;;;2.23;1.27;;;30.50;22.40;;;;;;5055423;28;20415;-47
2022/07/05 10:10:22;;;;;;;2.23;1.00;;;30.50;22.40;;;;;;5054633;28;20469;-48
2022/07/05 10:12:51;;;;;;;2.10;0.87;;;30.60;21.90;;;;;;5054652;28;20427;-49
2022/07/05 10:15:24;;;;;;;1.77;1.17;;;30.50;22.50;;;;;;5055878;28;20399;-48
2022/07/05 10:17:56;;;;;;;2.83;1.00;;;30.40;21.30;;;;;;5054568;28;20872;-49
2022/07/05 10:20:43;;;;;;;1.70;0.90;;;30.30;21.80;;;;;;5054887;28;20752;-48
2022/07/05 10:23:10;;;;;;;3.50;0.90;;;30.30;21.70;;;;;;5054111;28;20817;-47
2022/07/05 10:25:38;;;;;;;2.13;1.33;;;30.40;22.70;;;;;;5054655;28;20433;-49
2022/07/05 10:28:06;;;;;;;2.27;1.33;;;30.60;22.10;;;;;;5054744;28;20408;-47
2022/07/05 10:30:33;;;;;;;1.80;0.90;;;30.90;21.40;;;;;;5055276;28;20456;-49
2022/07/05 10:33:05;;;;;;;2.80;1.07;;;31.10;21.40;;;;;;5054817;28;20443;-48
2022/07/05 10:35:31;;;;;;;3.10;0.90;;;31.40;21.00;;;;;;5052703;28;20442;-48
2022/07/05 10:37:59;;;;;;;2.10;1.10;;;31.50;20.70;;;;;;5052729;28;20412;-48
2022/07/05 10:40:26;;;;;;;1.70;0.93;;;31.70;21.60;;;;;;5054061;28;20418;-47
2022/07/05 10:42:56;;;;;;;2.27;1.20;;;31.70;20.40;;;;;;5054708;28;20431;-48
2022/07/05 10:45:27;;;;;;;1.73;1.03;;;31.70;20.70;;;;;;5054253;28;20407;-48
2022/07/05 10:48:15;;;;;;;2.97;1.40;;;31.80;20.40;;;;;;5054341;28;20438;-48
2022/07/05 10:50:50;;;;;;;3.23;1.33;;;31.90;20.50;;;;;;5054897;28;20458;-48
2022/07/05 10:53:37;;;;;;;1.80;1.10;;;31.90;20.20;;;;;;5053148;28;20466;-48
2022/07/05 10:56:04;;;;;;;1.90;1.03;;;31.80;20.10;;;;;;5039222;28;20444;-47
2022/07/05 10:58:38;;;;;;;2.37;1.13;;;31.60;20.70;;;;;;5052498;28;20412;-49
2022/07/05 11:01:13;;;;;;;1.90;1.03;;;31.60;20.50;;;;;;5053298;28;20420;-48
2022/07/05 11:03:49;;;;;;;2.00;1.30;;;31.70;20.90;;;;;;5053727;28;20510;-49
2022/07/05 11:06:23;;;;;;;2.50;1.33;;;31.70;21.00;;;;;;5052039;28;20415;-48
2022/07/05 11:09:05;;;;;;;3.50;1.07;;;31.70;20.00;;;;;;5053345;28;20391;-48
2022/07/05 11:11:35;;;;;;;2.50;0.70;;;31.60;20.40;;;;;;5053202;28;20498;-48
2022/07/05 11:14:25;;;;;;;1.80;0.90;;;31.70;21.10;;;;;;5053509;28;20838;-48
2022/07/05 11:17:12;;;;;;;2.53;1.10;;;31.90;21.20;;;;;;5051862;28;20411;-49
2022/07/05 11:20:09;;;;;;;1.90;0.93;;;32.10;20.60;;;;;;5051665;28;20404;-47
2022/07/05 11:22:36;;;;;;;1.50;0.73;;;32.30;19.60;;;;;;5055139;28;20400;-48
2022/07/05 11:25:04;;;;;;;1.70;0.90;;;32.40;19.90;;;;;;5055195;28;20457;-47
2022/07/05 11:27:32;;;;;;;1.70;0.63;;;32.60;20.00;;;;;;5053633;28;20411;-49
2022/07/05 11:29:58;;;;;;;1.90;1.10;;;32.70;20.00;;;;;;5054886;28;20427;-48
2022/07/05 11:32:30;;;;;;;1.70;0.87;;;32.70;19.70;;;;;;5055062;28;20396;-47
2022/07/05 11:35:16;;;;;;;2.07;1.10;;;32.60;19.80;;;;;;5055148;28;20846;-49
2022/07/05 11:38:03;;;;;;;1.70;0.87;;;32.30;19.80;;;;;;5054845;28;20495;-47
2022/07/05 11:40:31;;;;;;;1.60;0.80;;;32.20;20.00;;;;;;5055095;28;20495;-49
2022/07/05 11:42:57;;;;;;;2.10;1.10;;;32.10;19.70;;;;;;5054884;28;20419;-49
2022/07/05 11:45:24;;;;;;;2.60;1.17;;;32.10;19.60;;;;;;5055044;28;20400;-48
2022/07/05 11:47:58;;;;;;;2.00;1.10;;;31.90;19.70;;;;;;5054722;28;20407;-48
2022/07/05 11:50:34;;;;;;;1.63;1.00;;;31.80;20.00;;;;;;5054567;28;20505;-48
2022/07/05 11:53:01;;;;;;;2.60;0.90;;;31.90;20.60;;;;;;5054696;28;20927;-48
2022/07/05 11:55:29;;;;;;;1.60;0.93;;;32.00;20.30;;;;;;5054532;28;20486;-48
2022/07/05 11:57:56;;;;;;;1.70;0.90;;;32.20;19.60;;;;;;5054495;28;20900;-48
2022/07/05 12:00:35;;;;;;;1.80;0.80;;;32.40;19.80;;;;;;5054807;28;20404;-48
2022/07/05 12:03:10;;;;;;;2.10;0.90;;;32.60;20.00;;;;;;5054394;28;20415;-48
2022/07/05 12:05:36;;;;;;;2.00;0.97;;;32.70;19.80;;;;;;5054246;28;20399;-49
2022/07/05 12:08:02;;;;;;;1.77;1.00;;;32.70;19.90;;;;;;5054448;28;20408;-48
2022/07/05 12:13:12;;;;;;;1.70;0.90;;;32.50;20.00;;;;;;5054413;28;20695;-48
2022/07/05 12:15:39;;;;;;;2.40;1.30;;;32.30;19.80;;;;;;5054272;28;20810;-49
2022/07/05 12:18:06;;;;;;;2.90;1.10;;;32.10;20.00;;;;;;5054548;28;21001;-49
2022/07/05 12:20:39;;;;;;;1.93;0.93;;;32.00;19.00;;;;;;5054564;28;20432;-47
2022/07/05 12:23:06;;;;;;;2.60;0.90;;;32.00;19.50;;;;;;5054130;28;20516;-48
2022/07/05 12:25:33;;;;;;;1.90;1.10;;;32.00;20.00;;;;;;5053981;28;20432;-49
2022/07/05 12:28:01;;;;;;;1.70;0.80;;;32.00;20.00;;;;;;5054069;28;20419;-49
2022/07/05 12:30:30;;;;;;;1.70;0.73;;;31.90;19.50;;;;;;5053760;28;20447;-47
2022/07/05 12:33:00;;;;;;;3.97;3.67;;;31.80;19.60;;;;;;5052482;28;21004;-49
2022/07/05 12:35:32;;;;;;;1.97;1.17;;;31.70;19.30;;;;;;5053782;28;20486;-48
2022/07/05 12:38:09;;;;;;;1.90;1.20;;;31.80;20.00;;;;;;5054085;28;20384;-50
2022/07/05 12:40:38;;;;;;;2.60;1.23;;;32.00;20.50;;;;;;5053813;28;20396;-50
2022/07/05 12:43:18;;;;;;;2.23;0.90;;;32.20;20.60;;;;;;5054108;28;20454;-50
2022/07/05 12:45:59;;;;;;;5.37;0.90;;;32.30;19.90;;;;;;5054009;28;20744;-49
2022/07/05 12:48:36;;;;;;;2.07;0.90;;;32.30;19.70;;;;;;5054274;28;20390;-49
2022/07/05 12:51:03;;;;;;;1.60;0.90;;;32.30;20.40;;;;;;5054382;28;20447;-48
2022/07/05 12:59:04;;;;;;;3.00;1.13;;;32.80;19.70;;;;;;5054458;28;20944;-48
2022/07/05 13:01:39;;;;;;;2.47;0.97;;;33.00;19.60;;;;;;5054509;28;20867;-50
2022/07/05 13:04:10;;;;;;;2.00;1.10;;;32.90;19.20;;;;;;5054217;28;20430;-49
2022/07/05 13:07:06;;;;;;;1.90;1.20;;;32.70;18.90;;;;;;5054002;28;20496;-49
2022/07/05 13:09:35;;;;;;;2.00;1.33;;;32.50;19.50;;;;;;5048767;28;20419;-50
2022/07/05 13:12:20;;;;;;;2.10;1.03;;;32.40;19.80;;;;;;5053110;28;20517;-49
2022/07/05 13:14:48;;;;;;;2.17;1.00;;;32.60;19.50;;;;;;5053503;28;20431;-48
2022/07/05 13:17:20;;;;;;;3.10;1.10;;;32.60;19.40;;;;;;5053319;28;20408;-49